Time;durP1;ratioP1;P1;durP2;ratioP2;P2;SDS_P1;SDS_P2;PMS_P1;PMS_P2;Temp;Humidity;BMP_temperature;BMP_pressure;BME280_temperature;BME280_humidity;BME280_pressure;Samples;Min_cycle;Max_cycle;Signal;HPM_P1;HPM_P2
2022/09/24 00:02:17;;;;;;;22.80;18.87;;;;;;;;;;5016403;28;20206;-66
2022/09/24 00:04:43;;;;;;;21.20;17.50;;;;;;;;;;5034706;28;20272;-64
2022/09/24 00:07:09;;;;;;;21.07;18.70;;;;;;;;;;5034415;28;20635;-67
2022/09/24 00:09:35;;;;;;;26.50;19.33;;;;;;;;;;5016424;28;20256;-66
2022/09/24 00:12:01;;;;;;;23.13;18.70;;;;;;;;;;5016271;28;20632;-66
2022/09/24 00:14:27;;;;;;;25.10;20.40;;;;;;;;;;5034308;28;20251;-66
2022/09/24 00:16:53;;;;;;;22.13;19.63;;;;;;;;;;5034269;28;20182;-65
2022/09/24 00:19:19;;;;;;;21.43;18.87;;;;;;;;;;5034456;28;20511;-66
2022/09/24 00:21:45;;;;;;;25.70;21.13;;;;;;;;;;5034253;28;20691;-66
2022/09/24 00:26:48;;;;;;;25.83;20.53;;;;;;;;;;5016293;28;20614;-66
2022/09/24 00:27:02;;;;;;;24.77;20.70;;;;;;;;;;5033793;28;20179;-66
2022/09/24 00:29:30;;;;;;;24.27;20.33;;;;;;;;;;5033884;28;20199;-66
2022/09/24 00:31:56;;;;;;;24.43;20.63;;;;;;;;;;5033716;28;20199;-67
2022/09/24 00:34:21;;;;;;;26.93;20.63;;;;;;;;;;5033927;28;20175;-66
2022/09/24 00:36:47;;;;;;;23.57;20.47;;;;;;;;;;5033643;28;20175;-66
2022/09/24 00:39:14;;;;;;;24.77;21.60;;;;;;;;;;5033640;28;20175;-67
2022/09/24 00:41:43;;;;;;;24.47;21.80;;;;;;;;;;5033868;28;20195;-67
2022/09/24 00:44:28;;;;;;;27.37;23.83;;;;;;;;;;5015660;28;20175;-67
2022/09/24 00:46:54;;;;;;;28.67;24.00;;;;;;;;;;5015711;28;20266;-66
2022/09/24 00:49:20;;;;;;;28.70;24.03;;;;;;;;;;5033680;28;20175;-66
2022/09/24 00:51:48;;;;;;;29.53;23.77;;;;;;;;;;5033416;28;20305;-67
2022/09/24 00:54:17;;;;;;;27.57;23.27;;;;;;;;;;5033239;28;20545;-66
2022/09/24 00:56:44;;;;;;;28.57;23.47;;;;;;;;;;5015519;28;20183;-66
2022/09/24 00:59:15;;;;;;;28.47;23.43;;;;;;;;;;5033381;28;20180;-67
2022/09/24 01:01:42;;;;;;;27.60;24.20;;;;;;;;;;5015622;28;20206;-66
2022/09/24 01:04:08;;;;;;;30.27;24.13;;;;;;;;;;5015416;28;20183;-66
2022/09/24 01:06:35;;;;;;;27.47;24.23;;;;;;;;;;5033515;28;20225;-66
2022/09/24 01:09:01;;;;;;;27.53;24.30;;;;;;;;;;5033845;28;20179;-66
2022/09/24 01:11:48;;;;;;;27.70;24.60;;;;;;;;;;5033076;28;20565;-65
2022/09/24 01:14:31;;;;;;;29.57;24.33;;;;;;;;;;5015484;28;20182;-66
2022/09/24 01:17:16;;;;;;;32.60;26.30;;;;;;;;;;5015408;28;20179;-66
2022/09/24 01:19:41;;;;;;;27.27;24.33;;;;;;;;;;5015314;28;20182;-65
2022/09/24 01:22:26;;;;;;;34.83;25.30;;;;;;;;;;5015129;28;20214;-67
2022/09/24 01:25:01;;;;;;;31.57;26.97;;;;;;;;;;5032934;28;20600;-66
2022/09/24 01:27:27;;;;;;;30.00;26.80;;;;;;;;;;5033596;28;20695;-66
2022/09/24 01:30:04;;;;;;;28.07;23.57;;;;;;;;;;5015271;28;20187;-67
2022/09/24 01:32:32;;;;;;;26.40;23.43;;;;;;;;;;5073188;23;20260;-70
2022/09/24 01:35:00;;;;;;;32.70;25.50;;;;;;;;;;5052799;28;20174;-70
2022/09/24 01:37:28;;;;;;;33.17;27.53;;;;;;;;;;5052879;28;20266;-70
2022/09/24 01:39:55;;;;;;;33.43;26.30;;;;;;;;;;5053377;28;20254;-70
2022/09/24 01:42:23;;;;;;;31.27;27.50;;;;;;;;;;5052624;28;20734;-70
2022/09/24 01:44:50;;;;;;;33.13;27.57;;;;;;;;;;5052708;28;20666;-70
2022/09/24 01:47:30;;;;;;;30.97;26.77;;;;;;;;;;5052817;28;20177;-71
2022/09/24 01:49:56;;;;;;;29.87;25.70;;;;;;;;;;5034882;28;20219;-71
2022/09/24 01:52:25;;;;;;;31.23;26.40;;;;;;;;;;5052685;28;20225;-71
2022/09/24 01:54:51;;;;;;;31.93;25.00;;;;;;;;;;5052650;28;20175;-70
2022/09/24 01:57:22;;;;;;;28.20;24.50;;;;;;;;;;5052600;28;20304;-70
2022/09/24 01:59:54;;;;;;;30.70;24.90;;;;;;;;;;5034786;28;20190;-70
2022/09/24 02:02:42;;;;;;;28.03;24.33;;;;;;;;;;5052840;28;20202;-68
2022/09/24 02:05:38;;;;;;;27.43;24.63;;;;;;;;;;5034948;28;20199;-68
2022/09/24 02:08:13;;;;;;;27.70;24.70;;;;;;;;;;5031748;28;20673;-69
2022/09/24 02:11:00;;;;;;;28.90;24.90;;;;;;;;;;5034658;28;20178;-70
2022/09/24 02:13:30;;;;;;;29.50;24.60;;;;;;;;;;5034798;28;20542;-68
2022/09/24 02:15:59;;;;;;;29.20;24.50;;;;;;;;;;5052538;28;20175;-70
2022/09/24 02:18:28;;;;;;;26.87;23.97;;;;;;;;;;5052616;28;20175;-70
2022/09/24 02:20:54;;;;;;;27.47;23.33;;;;;;;;;;5034533;28;20260;-69
2022/09/24 02:23:22;;;;;;;27.93;23.47;;;;;;;;;;5036661;28;20248;-69
2022/09/24 02:26:01;;;;;;;27.33;22.93;;;;;;;;;;5038031;28;20210;-68
2022/09/24 02:28:27;;;;;;;25.07;22.13;;;;;;;;;;5038134;28;20170;-70
2022/09/24 02:30:56;;;;;;;26.37;22.70;;;;;;;;;;5055893;28;20233;-70
2022/09/24 02:36:10;;;;;;;24.07;20.40;;;;;;;;;;5056458;28;20539;-70
2022/09/24 02:38:36;;;;;;;24.10;20.70;;;;;;;;;;5038092;28;20185;-69
2022/09/24 02:41:02;;;;;;;26.33;20.93;;;;;;;;;;5037762;28;20289;-70
2022/09/24 02:43:28;;;;;;;26.33;20.80;;;;;;;;;;5055966;28;20174;-69
2022/09/24 02:45:54;;;;;;;24.13;20.13;;;;;;;;;;5055567;28;20256;-68
2022/09/24 02:48:20;;;;;;;24.53;20.87;;;;;;;;;;5055838;28;20185;-68
2022/09/24 02:50:46;;;;;;;22.83;20.27;;;;;;;;;;5055657;28;20601;-68
2022/09/24 02:53:12;;;;;;;23.53;19.33;;;;;;;;;;5037693;28;20183;-70
2022/09/24 02:55:38;;;;;;;21.50;19.27;;;;;;;;;;5055683;28;20205;-68
2022/09/24 02:58:03;;;;;;;22.10;18.87;;;;;;;;;;5055611;28;20178;-68
2022/09/24 03:00:29;;;;;;;21.43;18.37;;;;;;;;;;5037401;28;20356;-70
2022/09/24 03:02:55;;;;;;;21.47;18.87;;;;;;;;;;5055762;28;20189;-70
2022/09/24 03:05:21;;;;;;;21.43;18.20;;;;;;;;;;5055507;28;20198;-68
2022/09/24 03:07:47;;;;;;;23.33;19.87;;;;;;;;;;5037347;28;20319;-69
2022/09/24 03:10:13;;;;;;;22.47;18.63;;;;;;;;;;5055196;28;20631;-68
2022/09/24 03:12:41;;;;;;;22.60;18.97;;;;;;;;;;5055059;28;20295;-68
2022/09/24 03:15:07;;;;;;;20.70;17.70;;;;;;;;;;5037264;28;20186;-70
2022/09/24 03:17:33;;;;;;;20.03;17.93;;;;;;;;;;5055233;28;20277;-68
2022/09/24 03:19:58;;;;;;;22.77;19.10;;;;;;;;;;5055121;28;20178;-68
2022/09/24 03:22:24;;;;;;;23.33;19.27;;;;;;;;;;5054929;28;20208;-68
2022/09/24 03:24:50;;;;;;;22.70;18.47;;;;;;;;;;5054906;28;20210;-70
2022/09/24 03:27:16;;;;;;;21.17;18.57;;;;;;;;;;5055186;28;20179;-68
2022/09/24 03:32:27;;;;;;;23.93;19.73;;;;;;;;;;5054923;28;20221;-69
2022/09/24 03:34:53;;;;;;;25.40;19.37;;;;;;;;;;5054003;28;20187;-70
2022/09/24 03:37:18;;;;;;;23.57;19.43;;;;;;;;;;5054783;28;20182;-68
2022/09/24 03:39:44;;;;;;;23.23;19.23;;;;;;;;;;5036745;28;20273;-68
2022/09/24 03:42:10;;;;;;;24.80;19.03;;;;;;;;;;5054454;28;20233;-70
2022/09/24 03:44:36;;;;;;;21.43;18.37;;;;;;;;;;5036599;28;20199;-70
2022/09/24 03:47:03;;;;;;;23.67;18.43;;;;;;;;;;5054937;28;20171;-69
2022/09/24 03:49:29;;;;;;;21.43;18.17;;;;;;;;;;5036341;28;20183;-69
2022/09/24 03:51:54;;;;;;;22.87;18.90;;;;;;;;;;5054192;28;20195;-68
2022/09/24 03:54:20;;;;;;;22.37;18.90;;;;;;;;;;5054146;28;20182;-69
2022/09/24 03:56:46;;;;;;;24.00;19.20;;;;;;;;;;5054514;28;20182;-69
2022/09/24 03:59:12;;;;;;;25.17;19.07;;;;;;;;;;5036400;28;20185;-69
2022/09/24 04:01:38;;;;;;;24.40;19.70;;;;;;;;;;5054469;28;20205;-69
2022/09/24 04:04:04;;;;;;;22.60;19.23;;;;;;;;;;5054092;28;20175;-69
2022/09/24 04:06:31;;;;;;;22.27;19.33;;;;;;;;;;5053945;28;20666;-69
2022/09/24 04:08:57;;;;;;;26.43;19.73;;;;;;;;;;5054414;28;20202;-69
2022/09/24 04:11:23;;;;;;;24.60;19.47;;;;;;;;;;5054533;28;20194;-69
2022/09/24 04:13:50;;;;;;;21.23;17.00;;;;;;;;;;5036107;28;20661;-69
2022/09/24 04:16:16;;;;;;;22.57;18.00;;;;;;;;;;5035827;28;20210;-69
2022/09/24 04:18:42;;;;;;;23.70;18.67;;;;;;;;;;5035845;28;20187;-69
2022/09/24 04:21:08;;;;;;;21.03;18.40;;;;;;;;;;5053662;28;20573;-69
2022/09/24 04:23:34;;;;;;;28.33;18.83;;;;;;;;;;5053728;28;20178;-69
2022/09/24 04:26:01;;;;;;;23.77;18.27;;;;;;;;;;5035788;28;20722;-68
2022/09/24 04:28:27;;;;;;;22.20;18.00;;;;;;;;;;5035909;28;20224;-69
2022/09/24 04:30:53;;;;;;;21.87;18.10;;;;;;;;;;5053512;28;20202;-69
2022/09/24 04:33:19;;;;;;;23.17;18.23;;;;;;;;;;5053955;28;20174;-69
2022/09/24 04:35:45;;;;;;;22.30;18.67;;;;;;;;;;5053705;28;20178;-69
2022/09/24 04:38:11;;;;;;;22.03;18.20;;;;;;;;;;5053477;28;20174;-69
2022/09/24 04:40:38;;;;;;;21.73;17.20;;;;;;;;;;5053424;28;20664;-69
2022/09/24 04:43:04;;;;;;;20.43;17.97;;;;;;;;;;5035493;28;20215;-70
2022/09/24 04:45:31;;;;;;;23.20;18.43;;;;;;;;;;5035225;28;20259;-69
2022/09/24 04:47:57;;;;;;;24.90;18.33;;;;;;;;;;5053317;28;20175;-69
2022/09/24 04:50:24;;;;;;;25.87;19.07;;;;;;;;;;5055422;28;20261;-69
2022/09/24 04:52:50;;;;;;;24.40;18.77;;;;;;;;;;5055920;28;20198;-68
2022/09/24 04:55:16;;;;;;;21.97;18.00;;;;;;;;;;5056177;28;20178;-69
2022/09/24 04:57:44;;;;;;;21.63;17.80;;;;;;;;;;5056293;28;20227;-69
2022/09/24 05:00:14;;;;;;;23.50;19.63;;;;;;;;;;5035680;28;20182;-69
2022/09/24 05:02:40;;;;;;;21.27;17.93;;;;;;;;;;5053315;28;20808;-69
2022/09/24 05:05:06;;;;;;;21.70;18.47;;;;;;;;;;5053037;28;20202;-68
2022/09/24 05:07:32;;;;;;;21.77;18.53;;;;;;;;;;5052957;28;20181;-69
2022/09/24 05:09:58;;;;;;;24.50;18.93;;;;;;;;;;5035017;28;20178;-69
2022/09/24 05:12:24;;;;;;;22.83;18.67;;;;;;;;;;5053068;28;20316;-68
2022/09/24 05:14:50;;;;;;;22.07;18.73;;;;;;;;;;5053203;28;20189;-69
2022/09/24 05:17:16;;;;;;;22.83;18.00;;;;;;;;;;5052811;28;20179;-69
2022/09/24 05:19:42;;;;;;;26.60;19.47;;;;;;;;;;5052810;28;20257;-69
2022/09/24 05:22:08;;;;;;;23.37;18.13;;;;;;;;;;5035004;28;20267;-69
2022/09/24 05:24:34;;;;;;;24.40;18.67;;;;;;;;;;5052845;28;20251;-69
2022/09/24 05:27:09;;;;;;;21.33;17.80;;;;;;;;;;5052808;28;20175;-69
2022/09/24 05:29:38;;;;;;;20.63;17.53;;;;;;;;;;5053253;28;20165;-69
2022/09/24 05:32:05;;;;;;;20.83;17.00;;;;;;;;;;5052775;28;20690;-69
2022/09/24 05:34:31;;;;;;;17.40;14.23;;;;;;;;;;5053034;28;20174;-69
2022/09/24 05:36:57;;;;;;;17.40;14.93;;;;;;;;;;5052797;28;20179;-69
2022/09/24 05:39:23;;;;;;;20.50;14.43;;;;;;;;;;5034966;28;20598;-69
2022/09/24 05:41:49;;;;;;;15.70;13.00;;;;;;;;;;5034763;28;20194;-69
2022/09/24 05:44:19;;;;;;;17.03;13.97;;;;;;;;;;5034782;28;20220;-69
2022/09/24 05:46:45;;;;;;;14.93;13.03;;;;;;;;;;5052826;28;20296;-69
2022/09/24 05:49:11;;;;;;;19.50;13.63;;;;;;;;;;5034871;28;20276;-69
2022/09/24 05:51:37;;;;;;;17.77;13.60;;;;;;;;;;5053075;28;20202;-69
2022/09/24 05:54:03;;;;;;;16.47;13.23;;;;;;;;;;5034920;28;20269;-69
2022/09/24 05:56:29;;;;;;;15.27;13.23;;;;;;;;;;5052686;28;20305;-69
2022/09/24 05:58:55;;;;;;;19.03;13.67;;;;;;;;;;5037549;28;20643;-69
2022/09/24 06:01:21;;;;;;;23.77;15.30;;;;;;;;;;5056393;28;20277;-69
2022/09/24 06:03:47;;;;;;;20.30;16.13;;;;;;;;;;5038608;28;20244;-69
2022/09/24 06:06:13;;;;;;;21.40;16.17;;;;;;;;;;5056310;28;20241;-68
2022/09/24 06:08:39;;;;;;;19.13;16.53;;;;;;;;;;5038552;28;20179;-69
2022/09/24 06:11:07;;;;;;;20.23;16.63;;;;;;;;;;5056607;28;20207;-69
2022/09/24 06:13:36;;;;;;;22.03;16.93;;;;;;;;;;5038586;28;20210;-68
2022/09/24 06:16:07;;;;;;;21.73;17.93;;;;;;;;;;5056311;28;20635;-69
2022/09/24 06:18:34;;;;;;;22.70;17.03;;;;;;;;;;5056475;28;20177;-69
2022/09/24 06:21:02;;;;;;;19.90;17.47;;;;;;;;;;5038368;28;20194;-69
2022/09/24 06:23:28;;;;;;;21.53;17.67;;;;;;;;;;5038531;28;20564;-69
2022/09/24 06:25:54;;;;;;;24.83;18.50;;;;;;;;;;5038269;28;20205;-69
2022/09/24 06:28:20;;;;;;;31.10;19.47;;;;;;;;;;5055994;28;20179;-69
2022/09/24 06:30:45;;;;;;;25.20;19.13;;;;;;;;;;5056285;28;20312;-69
2022/09/24 06:33:12;;;;;;;30.63;20.20;;;;;;;;;;5038195;28;20170;-69
2022/09/24 06:35:39;;;;;;;28.43;19.73;;;;;;;;;;5056142;28;20174;-69
2022/09/24 06:38:06;;;;;;;27.20;20.40;;;;;;;;;;5038008;28;20269;-68
2022/09/24 06:40:32;;;;;;;27.40;19.50;;;;;;;;;;5056209;28;20185;-69
2022/09/24 06:42:58;;;;;;;32.57;20.70;;;;;;;;;;5056475;28;20174;-69
2022/09/24 06:45:25;;;;;;;28.53;21.23;;;;;;;;;;5038098;28;20213;-69
2022/09/24 06:47:55;;;;;;;27.77;22.30;;;;;;;;;;5037915;28;20182;-70
2022/09/24 06:50:22;;;;;;;27.90;21.53;;;;;;;;;;5055741;28;20194;-68
2022/09/24 06:52:48;;;;;;;28.83;21.50;;;;;;;;;;5037861;28;20198;-69
2022/09/24 06:55:14;;;;;;;30.03;21.90;;;;;;;;;;5055658;28;20281;-69
2022/09/24 06:57:40;;;;;;;27.93;21.63;;;;;;;;;;5037767;28;20549;-70
2022/09/24 07:00:06;;;;;;;30.67;22.33;;;;;;;;;;5037774;28;20536;-69
2022/09/24 07:02:32;;;;;;;33.63;23.20;;;;;;;;;;5055437;28;20615;-69
2022/09/24 07:04:58;;;;;;;28.57;22.17;;;;;;;;;;5037525;28;20206;-70
2022/09/24 07:07:32;;;;;;;28.90;20.97;;;;;;;;;;5055442;28;20186;-70
2022/09/24 07:09:59;;;;;;;29.10;20.83;;;;;;;;;;5037582;28;20170;-69
2022/09/24 07:12:25;;;;;;;26.63;21.67;;;;;;;;;;5055299;28;20198;-69
2022/09/24 07:14:51;;;;;;;27.37;21.57;;;;;;;;;;5055370;28;20190;-69
2022/09/24 07:17:17;;;;;;;28.57;21.40;;;;;;;;;;5055355;28;20678;-70
2022/09/24 07:19:43;;;;;;;27.87;20.97;;;;;;;;;;5038096;28;20187;-70
2022/09/24 07:22:09;;;;;;;33.77;21.30;;;;;;;;;;5037188;28;20210;-70
2022/09/24 07:24:35;;;;;;;25.07;21.03;;;;;;;;;;5055645;28;20729;-69
2022/09/24 07:27:03;;;;;;;29.03;21.50;;;;;;;;;;5041774;28;20598;-69
2022/09/24 07:29:29;;;;;;;23.70;20.27;;;;;;;;;;5057656;28;20175;-69
2022/09/24 07:31:55;;;;;;;28.33;21.37;;;;;;;;;;5039316;28;20716;-69
2022/09/24 07:34:21;;;;;;;24.20;20.57;;;;;;;;;;5042995;28;20194;-69
2022/09/24 07:36:47;;;;;;;28.53;21.70;;;;;;;;;;5041748;28;20189;-69
2022/09/24 07:39:13;;;;;;;25.60;21.17;;;;;;;;;;5054832;28;20320;-70
2022/09/24 07:41:41;;;;;;;25.30;20.33;;;;;;;;;;5036447;28;20289;-69
2022/09/24 07:44:07;;;;;;;25.80;21.03;;;;;;;;;;5054471;28;20170;-69
2022/09/24 07:46:33;;;;;;;26.27;20.13;;;;;;;;;;5054197;28;20222;-69
2022/09/24 07:48:59;;;;;;;25.50;19.97;;;;;;;;;;5036365;28;20582;-69
2022/09/24 07:51:27;;;;;;;23.47;20.17;;;;;;;;;;5036360;28;20198;-69
2022/09/24 07:53:53;;;;;;;24.30;20.37;;;;;;;;;;5036677;28;20615;-69
2022/09/24 07:56:19;;;;;;;27.07;20.10;;;;;;;;;;5036579;28;20179;-69
2022/09/24 07:58:48;;;;;;;24.43;20.23;;;;;;;;;;5036231;28;20273;-70
2022/09/24 08:01:16;;;;;;;24.33;19.07;;;;;;;;;;5054228;28;20194;-69
2022/09/24 08:03:42;;;;;;;26.97;21.20;;;;;;;;;;5054162;28;20178;-69
2022/09/24 08:06:08;;;;;;;23.60;20.13;;;;;;;;;;5054121;28;20234;-69
2022/09/24 08:08:34;;;;;;;22.97;20.47;;;;;;;;;;5053951;28;20229;-69
2022/09/24 08:11:04;;;;;;;23.20;20.77;;;;;;;;;;5053863;28;20198;-70
2022/09/24 08:13:30;;;;;;;23.40;19.73;;;;;;;;;;5053790;28;20230;-69
2022/09/24 08:15:58;;;;;;;25.87;20.27;;;;;;;;;;5053752;28;20182;-69
2022/09/24 08:18:24;;;;;;;28.37;19.63;;;;;;;;;;5053698;28;20175;-69
2022/09/24 08:20:50;;;;;;;24.67;20.60;;;;;;;;;;5053023;28;20186;-70
2022/09/24 08:23:16;;;;;;;27.47;20.50;;;;;;;;;;5035700;28;20182;-69
2022/09/24 08:25:42;;;;;;;24.63;19.00;;;;;;;;;;5053444;28;20206;-69
2022/09/24 08:28:15;;;;;;;25.70;19.10;;;;;;;;;;5053460;28;20175;-69
2022/09/24 08:30:41;;;;;;;25.50;18.27;;;;;;;;;;5053726;28;20155;-69
2022/09/24 08:33:07;;;;;;;21.43;17.90;;;;;;;;;;5035722;28;20295;-69
2022/09/24 08:35:33;;;;;;;22.90;17.57;;;;;;;;;;5053561;28;20237;-69
2022/09/24 08:38:00;;;;;;;23.20;18.03;;;;;;;;;;5053555;28;20232;-69
2022/09/24 08:40:28;;;;;;;20.17;16.47;;;;;;;;;;5035659;28;20661;-69
2022/09/24 08:42:58;;;;;;;23.37;16.90;;;;;;;;;;5053763;28;20288;-69
2022/09/24 08:48:20;;;;;;;20.50;16.57;;;;;;;;;;5053681;28;20297;-70
2022/09/24 08:50:52;;;;;;;21.97;16.67;;;;;;;;;;5053164;28;20545;-69
2022/09/24 08:53:24;;;;;;;25.73;16.90;;;;;;;;;;5053301;28;20669;-69
2022/09/24 08:55:55;;;;;;;19.10;15.77;;;;;;;;;;5053327;28;20187;-70
2022/09/24 08:58:39;;;;;;;17.60;14.53;;;;;;;;;;5053391;28;20264;-69
2022/09/24 09:01:06;;;;;;;20.27;13.17;;;;;;;;;;5053865;28;20724;-70
2022/09/24 09:03:31;;;;;;;14.23;12.03;;;;;;;;;;5035987;28;20601;-69
2022/09/24 09:06:02;;;;;;;16.70;11.80;;;;;;;;;;5053097;28;20324;-69
2022/09/24 09:08:34;;;;;;;14.57;12.20;;;;;;;;;;5053345;28;20526;-69
2022/09/24 09:11:02;;;;;;;12.37;11.07;;;;;;;;;;5054161;28;20206;-69
2022/09/24 09:13:37;;;;;;;13.27;11.27;;;;;;;;;;5038821;28;20174;-69
2022/09/24 09:16:05;;;;;;;13.43;12.03;;;;;;;;;;5038067;28;20576;-69
2022/09/24 09:18:42;;;;;;;14.83;12.87;;;;;;;;;;5056019;28;20256;-67
2022/09/24 09:21:11;;;;;;;15.93;12.63;;;;;;;;;;5055140;28;20202;-69
2022/09/24 09:23:41;;;;;;;16.77;13.23;;;;;;;;;;5053149;28;20179;-70
2022/09/24 09:26:11;;;;;;;14.67;12.27;;;;;;;;;;5035136;28;20202;-69
2022/09/24 09:28:37;;;;;;;16.10;11.13;;;;;;;;;;5052896;28;20608;-69
2022/09/24 09:31:07;;;;;;;13.13;11.70;;;;;;;;;;5052808;28;20242;-69
2022/09/24 09:33:32;;;;;;;14.17;11.23;;;;;;;;;;5037565;28;20178;-69
2022/09/24 09:36:04;;;;;;;13.43;12.03;;;;;;;;;;5038983;28;20261;-69
2022/09/24 09:38:47;;;;;;;12.17;10.90;;;;;;;;;;5057187;28;20205;-69
2022/09/24 09:41:22;;;;;;;14.37;11.23;;;;;;;;;;5057087;28;20202;-69
2022/09/24 09:43:48;;;;;;;14.17;11.83;;;;;;;;;;5056691;28;20166;-69
2022/09/24 09:46:19;;;;;;;14.73;11.50;;;;;;;;;;5056908;28;20251;-68
2022/09/24 09:48:48;;;;;;;17.80;12.60;;;;;;;;;;5056844;28;20175;-69
2022/09/24 09:51:18;;;;;;;16.23;14.00;;;;;;;;;;5056480;28;20670;-69
2022/09/24 09:53:54;;;;;;;17.83;12.07;;;;;;;;;;5057117;28;20178;-68
2022/09/24 09:56:23;;;;;;;13.73;11.50;;;;;;;;;;5057065;28;20185;-69
2022/09/24 09:58:52;;;;;;;14.07;10.60;;;;;;;;;;5038652;28;20193;-69
2022/09/24 10:01:18;;;;;;;13.83;11.07;;;;;;;;;;5056403;28;20194;-70
2022/09/24 10:03:50;;;;;;;14.73;10.47;;;;;;;;;;5056887;28;20288;-68
2022/09/24 10:06:24;;;;;;;14.13;9.03;;;;;;;;;;5056398;28;20220;-70
2022/09/24 10:08:50;;;;;;;9.47;8.50;;;;;;;;;;5038370;28;20738;-69
2022/09/24 10:11:17;;;;;;;9.20;8.20;;;;;;;;;;5038410;28;20690;-69
2022/09/24 10:13:44;;;;;;;9.77;8.00;;;;;;;;;;5056184;28;20180;-69
2022/09/24 10:16:11;;;;;;;8.47;6.80;;;;;;;;;;5056796;28;20182;-69
2022/09/24 10:18:41;;;;;;;7.23;6.50;;;;;;;;;;5056132;28;20189;-69
2022/09/24 10:21:11;;;;;;;8.10;7.20;;;;;;;;;;5038736;28;20190;-69
2022/09/24 10:23:37;;;;;;;8.00;7.03;;;;;;;;;;5056176;28;20177;-70
2022/09/24 10:26:04;;;;;;;7.73;6.93;;;;;;;;;;5056641;28;20566;-69
2022/09/24 10:31:23;;;;;;;10.13;6.83;;;;;;;;;;5055919;28;20222;-69
2022/09/24 10:33:51;;;;;;;9.27;6.90;;;;;;;;;;5055968;28;20244;-69
2022/09/24 10:36:22;;;;;;;8.17;6.80;;;;;;;;;;5055898;28;20541;-70
2022/09/24 10:38:48;;;;;;;9.87;6.63;;;;;;;;;;5055800;28;20189;-68
2022/09/24 10:41:16;;;;;;;9.17;7.03;;;;;;;;;;5055687;28;20208;-69
2022/09/24 10:43:49;;;;;;;11.10;8.57;;;;;;;;;;5055117;28;20260;-69
2022/09/24 10:46:39;;;;;;;9.07;6.87;;;;;;;;;;5055620;28;20558;-69
2022/09/24 10:49:08;;;;;;;9.23;6.97;;;;;;;;;;5001017;28;20186;-68
2022/09/24 10:51:39;;;;;;;8.43;6.93;;;;;;;;;;5058780;28;20195;-69
2022/09/24 10:54:04;;;;;;;8.50;7.40;;;;;;;;;;5050155;28;20230;-70
2022/09/24 10:56:38;;;;;;;7.50;6.70;;;;;;;;;;5065859;28;20178;-70
2022/09/24 10:59:21;;;;;;;9.77;7.27;;;;;;;;;;5061637;28;20178;-69
2022/09/24 11:01:56;;;;;;;7.77;6.63;;;;;;;;;;5058693;28;20259;-70
2022/09/24 11:04:25;;;;;;;7.27;6.40;;;;;;;;;;5055352;28;20178;-71
2022/09/24 11:07:08;;;;;;;8.50;7.13;;;;;;;;;;5037312;28;20209;-69
2022/09/24 11:09:42;;;;;;;8.30;6.77;;;;;;;;;;5037340;28;20170;-69
2022/09/24 11:12:19;;;;;;;7.53;6.70;;;;;;;;;;5037268;28;20615;-69
2022/09/24 11:14:48;;;;;;;9.03;7.27;;;;;;;;;;5055706;28;20186;-69
2022/09/24 11:17:20;;;;;;;7.30;6.50;;;;;;;;;;5055375;28;20175;-70
2022/09/24 11:19:53;;;;;;;7.57;6.87;;;;;;;;;;5054992;28;20210;-69
2022/09/24 11:22:38;;;;;;;9.07;6.87;;;;;;;;;;5054991;28;20252;-69
2022/09/24 11:25:04;;;;;;;8.50;6.37;;;;;;;;;;5036952;28;20289;-69
2022/09/24 11:27:33;;;;;;;8.13;6.57;;;;;;;;;;5037056;28;20593;-69
2022/09/24 11:29:59;;;;;;;9.07;7.67;;;;;;;;;;5054835;28;20175;-69
2022/09/24 11:32:28;;;;;;;9.27;7.97;;;;;;;;;;5054621;28;20217;-69
2022/09/24 11:35:34;;;;;;;9.87;8.00;;;;;;;;;;5054709;28;20178;-69
2022/09/24 11:38:13;;;;;;;11.53;7.83;;;;;;;;;;4919687;29;20186;-70
2022/09/24 11:41:04;;;;;;;8.13;7.33;;;;;;;;;;4935394;29;20202;-69
2022/09/24 11:43:32;;;;;;;8.27;7.30;;;;;;;;;;5024191;28;20281;-70
2022/09/24 11:46:16;;;;;;;8.23;7.40;;;;;;;;;;5036677;28;20225;-69
2022/09/24 11:48:42;;;;;;;8.30;7.50;;;;;;;;;;5054820;28;20179;-69
2022/09/24 11:51:14;;;;;;;10.17;9.17;;;;;;;;;;5054767;28;20183;-69
2022/09/24 11:53:43;;;;;;;10.53;9.00;;;;;;;;;;5036531;28;20213;-70
2022/09/24 11:56:20;;;;;;;9.37;8.40;;;;;;;;;;5053411;28;20206;-69
2022/09/24 11:58:49;;;;;;;9.37;8.47;;;;;;;;;;5036599;28;20178;-70
2022/09/24 12:01:19;;;;;;;10.23;8.43;;;;;;;;;;5036416;28;20718;-70
2022/09/24 12:03:51;;;;;;;9.50;7.80;;;;;;;;;;5036327;28;20225;-70
2022/09/24 12:06:20;;;;;;;8.50;7.60;;;;;;;;;;5036496;28;20583;-69
2022/09/24 12:08:57;;;;;;;10.33;8.67;;;;;;;;;;5054533;28;20236;-69
2022/09/24 12:11:46;;;;;;;10.83;8.27;;;;;;;;;;5053954;28;20575;-68
2022/09/24 12:14:21;;;;;;;9.60;8.60;;;;;;;;;;5036143;28;20170;-69
2022/09/24 12:16:49;;;;;;;11.10;8.33;;;;;;;;;;5036022;28;20178;-68
2022/09/24 12:19:26;;;;;;;10.63;8.57;;;;;;;;;;5036036;28;20213;-68
2022/09/24 12:21:53;;;;;;;11.23;7.67;;;;;;;;;;5035866;28;20230;-69
2022/09/24 12:24:48;;;;;;;10.70;8.93;;;;;;;;;;5053861;28;20183;-70
2022/09/24 12:27:16;;;;;;;8.70;7.80;;;;;;;;;;5028774;28;20229;-69
2022/09/24 12:32:54;;;;;;;10.97;7.97;;;;;;;;;;5053637;28;20279;-69
2022/09/24 12:35:20;;;;;;;10.97;9.87;;;;;;;;;;5053833;28;20241;-69
2022/09/24 12:37:50;;;;;;;9.63;8.33;;;;;;;;;;5053928;28;20239;-69
2022/09/24 12:40:25;;;;;;;9.17;8.10;;;;;;;;;;5053757;28;20179;-70
2022/09/24 12:42:54;;;;;;;13.20;8.83;;;;;;;;;;5053547;28;20197;-70
2022/09/24 12:45:22;;;;;;;11.30;8.23;;;;;;;;;;5035676;28;20292;-70
2022/09/24 12:47:53;;;;;;;9.53;8.37;;;;;;;;;;5053777;28;20692;-69
2022/09/24 12:50:24;;;;;;;11.67;7.87;;;;;;;;;;5053877;28;20163;-69
2022/09/24 12:52:50;;;;;;;23.33;19.50;;;;;;;;;;5035792;28;20201;-70
2022/09/24 12:55:23;;;;;;;31.87;25.03;;;;;;;;;;5053280;28;20214;-70
2022/09/24 12:57:51;;;;;;;20.27;14.37;;;;;;;;;;5035445;28;20584;-70
2022/09/24 13:00:33;;;;;;;9.37;7.87;;;;;;;;;;5053620;28;20182;-70
2022/09/24 13:03:00;;;;;;;8.40;6.70;;;;;;;;;;5053579;28;20703;-69
2022/09/24 13:05:27;;;;;;;8.33;6.93;;;;;;;;;;5035582;28;20202;-69
2022/09/24 13:08:04;;;;;;;8.03;7.23;;;;;;;;;;5053195;28;20178;-70
2022/09/24 13:10:31;;;;;;;8.63;7.47;;;;;;;;;;5053625;28;20150;-71
2022/09/24 13:12:58;;;;;;;7.87;7.00;;;;;;;;;;5053314;28;20244;-70
2022/09/24 13:15:38;;;;;;;7.60;6.27;;;;;;;;;;5035347;28;20186;-70
2022/09/24 13:18:10;;;;;;;8.80;7.90;;;;;;;;;;5035300;28;20186;-69
2022/09/24 13:20:37;;;;;;;8.33;7.53;;;;;;;;;;5053206;28;20235;-69
2022/09/24 13:23:15;;;;;;;7.73;6.93;;;;;;;;;;5035262;28;20182;-70
2022/09/24 13:25:41;;;;;;;7.63;6.83;;;;;;;;;;5053062;28;20194;-69
2022/09/24 13:28:21;;;;;;;9.47;7.53;;;;;;;;;;5035177;28;20189;-70
2022/09/24 13:30:56;;;;;;;8.73;7.53;;;;;;;;;;5034712;28;20214;-69
2022/09/24 13:33:30;;;;;;;8.37;7.57;;;;;;;;;;5053119;28;20174;-69
2022/09/24 13:36:02;;;;;;;8.33;7.50;;;;;;;;;;5035018;28;20216;-69
2022/09/24 13:38:41;;;;;;;9.07;7.97;;;;;;;;;;5052974;28;20178;-69
2022/09/24 13:41:26;;;;;;;8.50;7.70;;;;;;;;;;5035156;28;20208;-69
2022/09/24 13:44:00;;;;;;;8.07;7.27;;;;;;;;;;5052959;28;20178;-69
2022/09/24 13:46:26;;;;;;;10.47;7.50;;;;;;;;;;5035134;28;20248;-69
2022/09/24 13:48:55;;;;;;;11.33;9.33;;;;;;;;;;5052912;28;20182;-69
2022/09/24 13:51:25;;;;;;;9.07;7.87;;;;;;;;;;5052632;28;20201;-70
2022/09/24 13:53:53;;;;;;;9.90;8.27;;;;;;;;;;5034985;28;20210;-69
2022/09/24 13:56:20;;;;;;;12.20;10.83;;;;;;;;;;5053087;28;20183;-69
2022/09/24 13:58:47;;;;;;;10.30;7.43;;;;;;;;;;5052893;28;20177;-69
2022/09/24 14:01:16;;;;;;;10.87;8.60;;;;;;;;;;5034894;28;20205;-69
2022/09/24 14:03:50;;;;;;;8.87;7.97;;;;;;;;;;5035142;28;20277;-69
2022/09/24 14:06:20;;;;;;;10.63;8.57;;;;;;;;;;5035951;28;20193;-69
2022/09/24 14:08:47;;;;;;;9.93;8.93;;;;;;;;;;5035710;28;20269;-69
2022/09/24 14:11:14;;;;;;;11.00;8.77;;;;;;;;;;5053776;28;20264;-71
2022/09/24 14:13:44;;;;;;;9.37;8.47;;;;;;;;;;5035355;28;20555;-70
2022/09/24 14:16:12;;;;;;;10.97;9.33;;;;;;;;;;5052990;28;20174;-69
2022/09/24 14:18:41;;;;;;;12.33;9.53;;;;;;;;;;5053655;28;20285;-69
2022/09/24 14:21:10;;;;;;;10.93;8.93;;;;;;;;;;5038245;28;20584;-68
2022/09/24 14:23:39;;;;;;;10.13;8.60;;;;;;;;;;5056924;28;20179;-69
2022/09/24 14:26:05;;;;;;;10.00;8.87;;;;;;;;;;5038414;28;20245;-69
2022/09/24 14:28:33;;;;;;;10.63;9.33;;;;;;;;;;5038475;28;20228;-69
2022/09/24 14:31:00;;;;;;;14.03;9.57;;;;;;;;;;5038354;28;20226;-69
2022/09/24 14:33:28;;;;;;;10.00;8.50;;;;;;;;;;5056584;28;20173;-69
2022/09/24 14:35:55;;;;;;;10.97;9.87;;;;;;;;;;5038578;28;20217;-69
2022/09/24 14:38:28;;;;;;;14.43;9.80;;;;;;;;;;5056624;28;20654;-69
2022/09/24 14:40:59;;;;;;;10.83;9.73;;;;;;;;;;5038354;28;20235;-69
2022/09/24 14:43:30;;;;;;;10.37;9.37;;;;;;;;;;5056065;28;20298;-68
2022/09/24 14:46:02;;;;;;;13.23;10.40;;;;;;;;;;5056446;28;20197;-69
2022/09/24 14:48:29;;;;;;;12.73;10.87;;;;;;;;;;5056456;28;20213;-69
2022/09/24 14:50:55;;;;;;;11.43;10.00;;;;;;;;;;5037907;28;20308;-69